sensor_id;sensor_type;location;lat;lon;timestamp;pressure;altitude;pressure_sealevel;temperature
28305;BMP280;15569;42.652;23.040;2022-12-18T00:01:30;93646.28;;;8.81
28305;BMP280;15569;42.652;23.040;2022-12-18T00:03:57;93657.44;;;8.76
28305;BMP280;15569;42.652;23.040;2022-12-18T00:06:26;93659.13;;;8.71
28305;BMP280;15569;42.652;23.040;2022-12-18T00:08:53;93669.53;;;8.85
28305;BMP280;15569;42.652;23.040;2022-12-18T00:11:21;93666.63;;;9.02
28305;BMP280;15569;42.652;23.040;2022-12-18T00:13:47;93675.19;;;9.38
28305;BMP280;15569;42.652;23.040;2022-12-18T00:16:15;93669.19;;;9.00
28305;BMP280;15569;42.652;23.040;2022-12-18T00:18:42;93668.09;;;8.83
28305;BMP280;15569;42.652;23.040;2022-12-18T00:21:09;93677.56;;;8.63
28305;BMP280;15569;42.652;23.040;2022-12-18T00:23:36;93676.59;;;9.09
28305;BMP280;15569;42.652;23.040;2022-12-18T00:26:04;93677.88;;;9.08
28305;BMP280;15569;42.652;23.040;2022-12-18T00:28:30;93689.13;;;8.54
28305;BMP280;15569;42.652;23.040;2022-12-18T00:31:08;93674.53;;;8.78
28305;BMP280;15569;42.652;23.040;2022-12-18T00:33:35;93686.19;;;9.00
28305;BMP280;15569;42.652;23.040;2022-12-18T00:36:09;93699.28;;;9.13
28305;BMP280;15569;42.652;23.040;2022-12-18T00:38:35;93698.22;;;9.28
28305;BMP280;15569;42.652;23.040;2022-12-18T00:41:01;93694.66;;;9.25
28305;BMP280;15569;42.652;23.040;2022-12-18T00:43:27;93690.63;;;8.96
28305;BMP280;15569;42.652;23.040;2022-12-18T00:45:52;93694.84;;;9.08
28305;BMP280;15569;42.652;23.040;2022-12-18T00:48:18;93699.84;;;9.21
28305;BMP280;15569;42.652;23.040;2022-12-18T00:50:43;93684.63;;;8.78
28305;BMP280;15569;42.652;23.040;2022-12-18T00:53:09;93701.28;;;9.13
28305;BMP280;15569;42.652;23.040;2022-12-18T00:55:34;93705.50;;;9.25
28305;BMP280;15569;42.652;23.040;2022-12-18T00:57:59;93699.66;;;9.29
28305;BMP280;15569;42.652;23.040;2022-12-18T01:00:25;93707.44;;;9.44
28305;BMP280;15569;42.652;23.040;2022-12-18T01:02:50;93703.72;;;9.09
28305;BMP280;15569;42.652;23.040;2022-12-18T01:05:16;93713.09;;;9.17
28305;BMP280;15569;42.652;23.040;2022-12-18T01:07:41;93717.38;;;9.20
28305;BMP280;15569;42.652;23.040;2022-12-18T01:10:08;93715.44;;;9.42
28305;BMP280;15569;42.652;23.040;2022-12-18T01:12:34;93720.19;;;9.41
28305;BMP280;15569;42.652;23.040;2022-12-18T01:15:00;93697.53;;;9.27
28305;BMP280;15569;42.652;23.040;2022-12-18T01:17:25;93707.38;;;9.32
28305;BMP280;15569;42.652;23.040;2022-12-18T01:19:50;93718.75;;;8.91
28305;BMP280;15569;42.652;23.040;2022-12-18T01:22:16;93721.91;;;8.58
28305;BMP280;15569;42.652;23.040;2022-12-18T01:24:41;93717.66;;;8.46
28305;BMP280;15569;42.652;23.040;2022-12-18T01:27:07;93719.47;;;8.91
28305;BMP280;15569;42.652;23.040;2022-12-18T01:29:32;93719.78;;;8.76
28305;BMP280;15569;42.652;23.040;2022-12-18T01:31:57;93728.56;;;8.86
28305;BMP280;15569;42.652;23.040;2022-12-18T01:34:23;93718.31;;;9.04
28305;BMP280;15569;42.652;23.040;2022-12-18T01:36:49;93732.16;;;8.69
28305;BMP280;15569;42.652;23.040;2022-12-18T01:39:17;93731.31;;;8.76
28305;BMP280;15569;42.652;23.040;2022-12-18T01:41:43;93726.47;;;8.85
28305;BMP280;15569;42.652;23.040;2022-12-18T01:47:32;93739.34;;;8.65
28305;BMP280;15569;42.652;23.040;2022-12-18T01:50:03;93751.56;;;8.56
28305;BMP280;15569;42.652;23.040;2022-12-18T01:52:31;93751.84;;;8.60
28305;BMP280;15569;42.652;23.040;2022-12-18T01:54:59;93743.88;;;8.62
28305;BMP280;15569;42.652;23.040;2022-12-18T01:57:25;93739.00;;;8.42
28305;BMP280;15569;42.652;23.040;2022-12-18T01:59:52;93745.59;;;8.58
28305;BMP280;15569;42.652;23.040;2022-12-18T02:02:20;93748.59;;;8.62
28305;BMP280;15569;42.652;23.040;2022-12-18T02:04:46;93749.84;;;8.90
28305;BMP280;15569;42.652;23.040;2022-12-18T02:19:18;93752.44;;;8.59
28305;BMP280;15569;42.652;23.040;2022-12-18T02:21:54;93754.84;;;8.36
28305;BMP280;15569;42.652;23.040;2022-12-18T02:27:00;93761.81;;;8.87
28305;BMP280;15569;42.652;23.040;2022-12-18T02:29:34;93755.53;;;8.27
28305;BMP280;15569;42.652;23.040;2022-12-18T02:32:02;93770.53;;;8.47
28305;BMP280;15569;42.652;23.040;2022-12-18T02:34:33;93757.72;;;8.47
28305;BMP280;15569;42.652;23.040;2022-12-18T02:37:02;93765.69;;;8.36
28305;BMP280;15569;42.652;23.040;2022-12-18T02:39:29;93777.53;;;8.40
28305;BMP280;15569;42.652;23.040;2022-12-18T02:41:57;93785.00;;;8.03
28305;BMP280;15569;42.652;23.040;2022-12-18T02:44:24;93772.94;;;8.14
28305;BMP280;15569;42.652;23.040;2022-12-18T02:46:51;93772.25;;;8.52
28305;BMP280;15569;42.652;23.040;2022-12-18T02:51:59;93787.38;;;8.45
28305;BMP280;15569;42.652;23.040;2022-12-18T02:54:55;93787.25;;;7.97
28305;BMP280;15569;42.652;23.040;2022-12-18T02:59:59;93788.66;;;7.89
28305;BMP280;15569;42.652;23.040;2022-12-18T03:08:06;93796.25;;;8.00
28305;BMP280;15569;42.652;23.040;2022-12-18T03:10:35;93789.41;;;7.99
28305;BMP280;15569;42.652;23.040;2022-12-18T03:13:06;93804.19;;;8.34
28305;BMP280;15569;42.652;23.040;2022-12-18T03:15:38;93800.63;;;8.41
28305;BMP280;15569;42.652;23.040;2022-12-18T03:18:08;93803.91;;;8.68
28305;BMP280;15569;42.652;23.040;2022-12-18T03:20:36;93808.34;;;8.35
28305;BMP280;15569;42.652;23.040;2022-12-18T03:23:09;93804.97;;;7.45
28305;BMP280;15569;42.652;23.040;2022-12-18T03:25:39;93810.66;;;7.76
28305;BMP280;15569;42.652;23.040;2022-12-18T03:28:07;93817.59;;;8.32
28305;BMP280;15569;42.652;23.040;2022-12-18T03:30:37;93819.19;;;7.99
28305;BMP280;15569;42.652;23.040;2022-12-18T03:36:30;93839.47;;;8.17
28305;BMP280;15569;42.652;23.040;2022-12-18T03:38:58;93834.63;;;8.16
28305;BMP280;15569;42.652;23.040;2022-12-18T03:42:14;93846.78;;;8.24
28305;BMP280;15569;42.652;23.040;2022-12-18T03:50:17;93845.88;;;8.12
28305;BMP280;15569;42.652;23.040;2022-12-18T03:55:11;93855.97;;;7.75
28305;BMP280;15569;42.652;23.040;2022-12-18T03:57:37;93857.44;;;7.86
28305;BMP280;15569;42.652;23.040;2022-12-18T04:00:12;93852.50;;;7.92
28305;BMP280;15569;42.652;23.040;2022-12-18T04:02:44;93855.28;;;8.11
28305;BMP280;15569;42.652;23.040;2022-12-18T04:05:11;93854.34;;;8.26
28305;BMP280;15569;42.652;23.040;2022-12-18T04:07:38;93831.00;;;7.94
28305;BMP280;15569;42.652;23.040;2022-12-18T04:10:06;93858.38;;;8.34
28305;BMP280;15569;42.652;23.040;2022-12-18T04:12:32;93856.09;;;8.40
28305;BMP280;15569;42.652;23.040;2022-12-18T04:14:57;93859.84;;;8.18
28305;BMP280;15569;42.652;23.040;2022-12-18T04:17:23;93864.28;;;8.14
28305;BMP280;15569;42.652;23.040;2022-12-18T04:19:49;93866.13;;;8.11
28305;BMP280;15569;42.652;23.040;2022-12-18T04:22:14;93864.31;;;7.87
28305;BMP280;15569;42.652;23.040;2022-12-18T04:24:39;93873.88;;;7.97
28305;BMP280;15569;42.652;23.040;2022-12-18T04:27:05;93877.56;;;7.66
28305;BMP280;15569;42.652;23.040;2022-12-18T04:29:30;93879.97;;;7.62
28305;BMP280;15569;42.652;23.040;2022-12-18T04:31:56;93890.47;;;8.01
28305;BMP280;15569;42.652;23.040;2022-12-18T04:34:21;93893.22;;;7.84
28305;BMP280;15569;42.652;23.040;2022-12-18T04:36:47;93888.13;;;7.45
28305;BMP280;15569;42.652;23.040;2022-12-18T04:39:13;93894.78;;;7.43
28305;BMP280;15569;42.652;23.040;2022-12-18T04:41:39;93887.13;;;7.67
28305;BMP280;15569;42.652;23.040;2022-12-18T04:44:04;93899.56;;;7.53
28305;BMP280;15569;42.652;23.040;2022-12-18T04:46:30;93891.63;;;7.37
28305;BMP280;15569;42.652;23.040;2022-12-18T04:48:55;93891.28;;;7.51
28305;BMP280;15569;42.652;23.040;2022-12-18T04:51:20;93892.91;;;7.19
28305;BMP280;15569;42.652;23.040;2022-12-18T04:53:46;93901.88;;;7.05
28305;BMP280;15569;42.652;23.040;2022-12-18T04:56:14;93907.56;;;7.33
28305;BMP280;15569;42.652;23.040;2022-12-18T04:58:41;93897.53;;;6.92
28305;BMP280;15569;42.652;23.040;2022-12-18T05:01:08;93916.88;;;6.64
28305;BMP280;15569;42.652;23.040;2022-12-18T05:03:35;93925.19;;;7.17
28305;BMP280;15569;42.652;23.040;2022-12-18T05:06:00;93925.34;;;6.60
28305;BMP280;15569;42.652;23.040;2022-12-18T05:08:26;93930.91;;;7.04
28305;BMP280;15569;42.652;23.040;2022-12-18T05:11:09;93937.72;;;6.71
28305;BMP280;15569;42.652;23.040;2022-12-18T05:13:35;93941.03;;;6.62
28305;BMP280;15569;42.652;23.040;2022-12-18T05:16:01;93945.25;;;6.23
28305;BMP280;15569;42.652;23.040;2022-12-18T05:18:27;93944.91;;;6.19
28305;BMP280;15569;42.652;23.040;2022-12-18T05:20:53;93953.84;;;5.97
28305;BMP280;15569;42.652;23.040;2022-12-18T05:23:21;93952.63;;;6.23
28305;BMP280;15569;42.652;23.040;2022-12-18T05:25:58;93954.78;;;6.24
28305;BMP280;15569;42.652;23.040;2022-12-18T05:28:25;93951.56;;;6.18
28305;BMP280;15569;42.652;23.040;2022-12-18T05:30:52;93961.81;;;6.77
28305;BMP280;15569;42.652;23.040;2022-12-18T05:33:19;93961.56;;;7.24
28305;BMP280;15569;42.652;23.040;2022-12-18T05:35:52;93960.63;;;7.04
28305;BMP280;15569;42.652;23.040;2022-12-18T05:38:19;93977.22;;;7.25
28305;BMP280;15569;42.652;23.040;2022-12-18T05:40:44;93956.06;;;7.14
28305;BMP280;15569;42.652;23.040;2022-12-18T05:43:10;93978.97;;;7.30
28305;BMP280;15569;42.652;23.040;2022-12-18T05:45:39;93978.31;;;7.05
28305;BMP280;15569;42.652;23.040;2022-12-18T05:48:06;93995.06;;;7.46
28305;BMP280;15569;42.652;23.040;2022-12-18T05:50:37;93989.75;;;7.72
28305;BMP280;15569;42.652;23.040;2022-12-18T05:53:04;93988.78;;;7.60
28305;BMP280;15569;42.652;23.040;2022-12-18T05:55:33;93992.69;;;7.67
28305;BMP280;15569;42.652;23.040;2022-12-18T05:57:59;94006.50;;;7.88
28305;BMP280;15569;42.652;23.040;2022-12-18T06:00:24;94011.69;;;7.59
28305;BMP280;15569;42.652;23.040;2022-12-18T06:02:50;94016.22;;;7.57
28305;BMP280;15569;42.652;23.040;2022-12-18T06:05:15;93993.41;;;7.50
28305;BMP280;15569;42.652;23.040;2022-12-18T06:07:41;94012.91;;;7.49
28305;BMP280;15569;42.652;23.040;2022-12-18T06:10:06;94013.88;;;7.61
28305;BMP280;15569;42.652;23.040;2022-12-18T06:12:32;94014.94;;;7.75
28305;BMP280;15569;42.652;23.040;2022-12-18T06:14:59;94016.47;;;7.34
28305;BMP280;15569;42.652;23.040;2022-12-18T06:17:31;94026.91;;;7.55
28305;BMP280;15569;42.652;23.040;2022-12-18T06:19:57;94017.28;;;7.78
28305;BMP280;15569;42.652;23.040;2022-12-18T06:22:23;94013.97;;;7.28
28305;BMP280;15569;42.652;23.040;2022-12-18T06:24:48;94028.31;;;7.56
28305;BMP280;15569;42.652;23.040;2022-12-18T06:27:14;94017.69;;;7.58
28305;BMP280;15569;42.652;23.040;2022-12-18T06:29:39;94031.97;;;7.51
28305;BMP280;15569;42.652;23.040;2022-12-18T06:32:05;94027.69;;;7.65
28305;BMP280;15569;42.652;23.040;2022-12-18T06:34:30;94034.78;;;7.60
28305;BMP280;15569;42.652;23.040;2022-12-18T06:36:55;94042.03;;;7.92
28305;BMP280;15569;42.652;23.040;2022-12-18T06:39:21;94032.13;;;7.53
28305;BMP280;15569;42.652;23.040;2022-12-18T06:41:46;94044.78;;;7.67
28305;BMP280;15569;42.652;23.040;2022-12-18T06:44:11;94051.16;;;7.62
28305;BMP280;15569;42.652;23.040;2022-12-18T06:46:37;94056.03;;;7.81
28305;BMP280;15569;42.652;23.040;2022-12-18T06:49:03;94048.22;;;7.51
28305;BMP280;15569;42.652;23.040;2022-12-18T06:51:28;94053.88;;;7.62
28305;BMP280;15569;42.652;23.040;2022-12-18T06:53:53;94060.84;;;7.73
28305;BMP280;15569;42.652;23.040;2022-12-18T06:56:19;94054.03;;;7.64
28305;BMP280;15569;42.652;23.040;2022-12-18T06:58:44;94050.63;;;7.81
28305;BMP280;15569;42.652;23.040;2022-12-18T07:01:11;94051.41;;;8.08
28305;BMP280;15569;42.652;23.040;2022-12-18T07:03:38;94061.13;;;7.77
28305;BMP280;15569;42.652;23.040;2022-12-18T07:06:04;94062.31;;;7.66
28305;BMP280;15569;42.652;23.040;2022-12-18T07:08:31;94067.97;;;7.95
28305;BMP280;15569;42.652;23.040;2022-12-18T07:10:56;94069.56;;;7.98
28305;BMP280;15569;42.652;23.040;2022-12-18T07:13:22;94066.53;;;8.11
28305;BMP280;15569;42.652;23.040;2022-12-18T07:15:48;94050.06;;;7.99
28305;BMP280;15569;42.652;23.040;2022-12-18T07:18:13;94069.09;;;8.26
28305;BMP280;15569;42.652;23.040;2022-12-18T07:20:39;94071.78;;;8.26
28305;BMP280;15569;42.652;23.040;2022-12-18T07:23:04;94072.00;;;8.21
28305;BMP280;15569;42.652;23.040;2022-12-18T07:25:34;94077.25;;;8.19
28305;BMP280;15569;42.652;23.040;2022-12-18T07:27:59;94085.50;;;8.11
28305;BMP280;15569;42.652;23.040;2022-12-18T07:30:25;94083.25;;;8.17
28305;BMP280;15569;42.652;23.040;2022-12-18T07:32:50;94075.88;;;7.83
28305;BMP280;15569;42.652;23.040;2022-12-18T07:35:15;94072.50;;;8.09
28305;BMP280;15569;42.652;23.040;2022-12-18T07:37:41;94077.19;;;8.09
28305;BMP280;15569;42.652;23.040;2022-12-18T07:40:07;94078.56;;;8.00
28305;BMP280;15569;42.652;23.040;2022-12-18T07:42:33;94091.06;;;8.13
28305;BMP280;15569;42.652;23.040;2022-12-18T07:45:00;94091.44;;;8.09
28305;BMP280;15569;42.652;23.040;2022-12-18T07:47:27;94084.50;;;8.33
28305;BMP280;15569;42.652;23.040;2022-12-18T07:49:52;94097.25;;;8.40
28305;BMP280;15569;42.652;23.040;2022-12-18T07:52:18;94093.91;;;8.32
28305;BMP280;15569;42.652;23.040;2022-12-18T07:54:43;94099.50;;;8.34
28305;BMP280;15569;42.652;23.040;2022-12-18T07:57:09;94093.63;;;8.11
28305;BMP280;15569;42.652;23.040;2022-12-18T07:59:34;94097.88;;;8.31
28305;BMP280;15569;42.652;23.040;2022-12-18T08:02:00;94102.13;;;8.25
28305;BMP280;15569;42.652;23.040;2022-12-18T08:04:26;94112.13;;;8.05
28305;BMP280;15569;42.652;23.040;2022-12-18T08:06:52;94120.06;;;8.20
28305;BMP280;15569;42.652;23.040;2022-12-18T08:09:18;94114.72;;;8.13
28305;BMP280;15569;42.652;23.040;2022-12-18T08:11:43;94131.06;;;8.22
28305;BMP280;15569;42.652;23.040;2022-12-18T08:14:09;94132.72;;;8.35
28305;BMP280;15569;42.652;23.040;2022-12-18T08:16:35;94132.19;;;8.02
28305;BMP280;15569;42.652;23.040;2022-12-18T08:19:00;94134.94;;;8.29
28305;BMP280;15569;42.652;23.040;2022-12-18T08:21:28;94131.19;;;8.24
28305;BMP280;15569;42.652;23.040;2022-12-18T08:23:55;94135.19;;;8.23
28305;BMP280;15569;42.652;23.040;2022-12-18T08:26:22;94132.72;;;8.35
28305;BMP280;15569;42.652;23.040;2022-12-18T08:28:49;94123.00;;;7.97
28305;BMP280;15569;42.652;23.040;2022-12-18T08:31:15;94143.97;;;8.14
28305;BMP280;15569;42.652;23.040;2022-12-18T08:33:40;94149.81;;;8.37
28305;BMP280;15569;42.652;23.040;2022-12-18T08:36:06;94133.41;;;8.52
28305;BMP280;15569;42.652;23.040;2022-12-18T08:38:32;94146.34;;;8.44
28305;BMP280;15569;42.652;23.040;2022-12-18T08:41:07;94132.91;;;8.63
28305;BMP280;15569;42.652;23.040;2022-12-18T08:43:32;94129.06;;;8.23
28305;BMP280;15569;42.652;23.040;2022-12-18T08:46:17;94150.47;;;8.45
28305;BMP280;15569;42.652;23.040;2022-12-18T08:48:43;94147.03;;;8.28
28305;BMP280;15569;42.652;23.040;2022-12-18T08:51:09;94144.91;;;8.09
28305;BMP280;15569;42.652;23.040;2022-12-18T08:53:35;94141.25;;;8.31
28305;BMP280;15569;42.652;23.040;2022-12-18T08:56:01;94150.16;;;8.41
28305;BMP280;15569;42.652;23.040;2022-12-18T08:58:27;94138.97;;;8.54
28305;BMP280;15569;42.652;23.040;2022-12-18T09:00:52;94145.28;;;8.40
28305;BMP280;15569;42.652;23.040;2022-12-18T09:03:18;94137.03;;;8.03
28305;BMP280;15569;42.652;23.040;2022-12-18T09:05:45;94144.97;;;7.43
28305;BMP280;15569;42.652;23.040;2022-12-18T09:08:11;94155.31;;;7.95
28305;BMP280;15569;42.652;23.040;2022-12-18T09:10:43;94141.53;;;7.42
28305;BMP280;15569;42.652;23.040;2022-12-18T09:13:11;94144.94;;;7.67
28305;BMP280;15569;42.652;23.040;2022-12-18T09:15:44;94154.06;;;7.96
28305;BMP280;15569;42.652;23.040;2022-12-18T09:18:11;94156.53;;;8.02
28305;BMP280;15569;42.652;23.040;2022-12-18T09:20:37;94157.97;;;8.03
28305;BMP280;15569;42.652;23.040;2022-12-18T09:23:03;94153.06;;;8.26
28305;BMP280;15569;42.652;23.040;2022-12-18T09:25:29;94141.53;;;8.52
28305;BMP280;15569;42.652;23.040;2022-12-18T09:28:06;94142.22;;;8.26
28305;BMP280;15569;42.652;23.040;2022-12-18T09:30:32;94142.53;;;8.13
28305;BMP280;15569;42.652;23.040;2022-12-18T09:32:59;94155.75;;;8.43
28305;BMP280;15569;42.652;23.040;2022-12-18T09:35:25;94139.94;;;8.49
28305;BMP280;15569;42.652;23.040;2022-12-18T09:37:50;94150.13;;;8.58
28305;BMP280;15569;42.652;23.040;2022-12-18T09:40:18;94142.94;;;8.70
28305;BMP280;15569;42.652;23.040;2022-12-18T09:42:48;94143.19;;;8.48
28305;BMP280;15569;42.652;23.040;2022-12-18T09:45:16;94131.25;;;8.77
28305;BMP280;15569;42.652;23.040;2022-12-18T09:47:43;94139.66;;;8.72
28305;BMP280;15569;42.652;23.040;2022-12-18T09:50:35;94143.13;;;8.55
28305;BMP280;15569;42.652;23.040;2022-12-18T09:53:10;94142.13;;;8.34
28305;BMP280;15569;42.652;23.040;2022-12-18T09:55:40;94140.00;;;8.59
28305;BMP280;15569;42.652;23.040;2022-12-18T09:58:28;94140.19;;;8.27
28305;BMP280;15569;42.652;23.040;2022-12-18T10:00:56;94141.56;;;8.79
28305;BMP280;15569;42.652;23.040;2022-12-18T10:03:21;94138.69;;;8.77
28305;BMP280;15569;42.652;23.040;2022-12-18T10:06:02;94132.94;;;8.46
28305;BMP280;15569;42.652;23.040;2022-12-18T10:11:25;94136.59;;;8.85
28305;BMP280;15569;42.652;23.040;2022-12-18T10:16:55;94136.16;;;8.35
28305;BMP280;15569;42.652;23.040;2022-12-18T10:19:34;94143.38;;;7.98
28305;BMP280;15569;42.652;23.040;2022-12-18T10:27:39;94140.19;;;8.44
28305;BMP280;15569;42.652;23.040;2022-12-18T10:30:20;94141.38;;;8.33
28305;BMP280;15569;42.652;23.040;2022-12-18T10:32:46;94140.94;;;8.10
28305;BMP280;15569;42.652;23.040;2022-12-18T10:35:18;94141.31;;;8.41
28305;BMP280;15569;42.652;23.040;2022-12-18T10:43:19;94130.09;;;8.71
28305;BMP280;15569;42.652;23.040;2022-12-18T10:45:59;94116.34;;;8.42
28305;BMP280;15569;42.652;23.040;2022-12-18T10:48:25;94126.50;;;8.07
28305;BMP280;15569;42.652;23.040;2022-12-18T10:50:51;94128.13;;;9.08
28305;BMP280;15569;42.652;23.040;2022-12-18T10:53:24;94121.00;;;8.76
28305;BMP280;15569;42.652;23.040;2022-12-18T10:55:52;94123.22;;;8.97
28305;BMP280;15569;42.652;23.040;2022-12-18T11:01:06;94134.47;;;8.66
28305;BMP280;15569;42.652;23.040;2022-12-18T11:03:32;94143.78;;;8.46
28305;BMP280;15569;42.652;23.040;2022-12-18T11:06:18;94143.19;;;8.48
28305;BMP280;15569;42.652;23.040;2022-12-18T11:09:02;94129.19;;;8.68
28305;BMP280;15569;42.652;23.040;2022-12-18T11:11:28;94139.63;;;8.99
28305;BMP280;15569;42.652;23.040;2022-12-18T11:16:25;94135.09;;;8.74
28305;BMP280;15569;42.652;23.040;2022-12-18T11:18:51;94143.66;;;8.98
28305;BMP280;15569;42.652;23.040;2022-12-18T11:21:17;94147.94;;;9.37
28305;BMP280;15569;42.652;23.040;2022-12-18T11:24:00;94147.94;;;9.37
28305;BMP280;15569;42.652;23.040;2022-12-18T11:26:34;94145.31;;;9.66
28305;BMP280;15569;42.652;23.040;2022-12-18T11:29:12;94148.72;;;9.57
28305;BMP280;15569;42.652;23.040;2022-12-18T11:31:40;94138.28;;;9.17
28305;BMP280;15569;42.652;23.040;2022-12-18T11:34:23;94153.50;;;9.29
28305;BMP280;15569;42.652;23.040;2022-12-18T11:36:50;94149.81;;;9.44
28305;BMP280;15569;42.652;23.040;2022-12-18T11:39:20;94152.81;;;9.38
28305;BMP280;15569;42.652;23.040;2022-12-18T11:42:04;94156.34;;;9.77
28305;BMP280;15569;42.652;23.040;2022-12-18T11:44:48;94156.22;;;9.75
28305;BMP280;15569;42.652;23.040;2022-12-18T11:50:19;94147.09;;;9.44
28305;BMP280;15569;42.652;23.040;2022-12-18T11:52:47;94133.78;;;9.84
28305;BMP280;15569;42.652;23.040;2022-12-18T11:56:01;94136.81;;;9.52
28305;BMP280;15569;42.652;23.040;2022-12-18T11:58:16;94142.25;;;9.52
28305;BMP280;15569;42.652;23.040;2022-12-18T12:03:51;94142.69;;;9.39
28305;BMP280;15569;42.652;23.040;2022-12-18T12:09:43;94141.53;;;10.26
28305;BMP280;15569;42.652;23.040;2022-12-18T12:17:45;94146.72;;;10.72
28305;BMP280;15569;42.652;23.040;2022-12-18T12:26:10;94150.72;;;10.71
28305;BMP280;15569;42.652;23.040;2022-12-18T12:28:52;94155.63;;;10.53
28305;BMP280;15569;42.652;23.040;2022-12-18T12:39:03;94158.53;;;10.26
28305;BMP280;15569;42.652;23.040;2022-12-18T12:41:32;94155.25;;;10.18
28305;BMP280;15569;42.652;23.040;2022-12-18T12:44:25;94158.66;;;10.48
28305;BMP280;15569;42.652;23.040;2022-12-18T12:46:52;94155.34;;;10.20
28305;BMP280;15569;42.652;23.040;2022-12-18T12:49:21;94145.16;;;9.54
28305;BMP280;15569;42.652;23.040;2022-12-18T12:51:56;94159.19;;;9.79
28305;BMP280;15569;42.652;23.040;2022-12-18T12:54:24;94153.03;;;9.79
28305;BMP280;15569;42.652;23.040;2022-12-18T12:57:02;94164.66;;;10.37
28305;BMP280;15569;42.652;23.040;2022-12-18T13:00:04;94163.19;;;10.74
28305;BMP280;15569;42.652;23.040;2022-12-18T13:02:39;94178.38;;;10.39
28305;BMP280;15569;42.652;23.040;2022-12-18T13:05:28;94170.66;;;10.45
28305;BMP280;15569;42.652;23.040;2022-12-18T13:08:50;94177.53;;;10.26
28305;BMP280;15569;42.652;23.040;2022-12-18T13:10:58;94187.69;;;10.64
28305;BMP280;15569;42.652;23.040;2022-12-18T13:13:54;94188.19;;;11.41
28305;BMP280;15569;42.652;23.040;2022-12-18T13:16:22;94178.19;;;11.34
28305;BMP280;15569;42.652;23.040;2022-12-18T13:18:51;94186.50;;;12.86
28305;BMP280;15569;42.652;23.040;2022-12-18T13:21:44;94183.09;;;11.26
28305;BMP280;15569;42.652;23.040;2022-12-18T13:24:26;94182.81;;;10.82
28305;BMP280;15569;42.652;23.040;2022-12-18T13:26:52;94187.66;;;11.33
28305;BMP280;15569;42.652;23.040;2022-12-18T13:29:41;94193.88;;;11.15
28305;BMP280;15569;42.652;23.040;2022-12-18T13:32:22;94199.44;;;10.67
28305;BMP280;15569;42.652;23.040;2022-12-18T13:34:48;94194.72;;;10.67
28305;BMP280;15569;42.652;23.040;2022-12-18T13:39:57;94190.56;;;10.38
28305;BMP280;15569;42.652;23.040;2022-12-18T13:45:42;94204.16;;;10.28
28305;BMP280;15569;42.652;23.040;2022-12-18T13:48:20;94201.69;;;10.13
28305;BMP280;15569;42.652;23.040;2022-12-18T13:51:08;94206.13;;;10.08
28305;BMP280;15569;42.652;23.040;2022-12-18T13:53:39;94214.00;;;10.04
28305;BMP280;15569;42.652;23.040;2022-12-18T13:56:07;94206.28;;;9.55
28305;BMP280;15569;42.652;23.040;2022-12-18T13:58:32;94215.94;;;9.75
28305;BMP280;15569;42.652;23.040;2022-12-18T14:00:58;94203.63;;;9.65
28305;BMP280;15569;42.652;23.040;2022-12-18T14:03:26;94207.63;;;9.27
28305;BMP280;15569;42.652;23.040;2022-12-18T14:06:06;94203.59;;;9.28
28305;BMP280;15569;42.652;23.040;2022-12-18T14:08:37;94202.69;;;9.16
28305;BMP280;15569;42.652;23.040;2022-12-18T14:11:04;94208.38;;;9.11
28305;BMP280;15569;42.652;23.040;2022-12-18T14:13:35;94209.97;;;9.40
28305;BMP280;15569;42.652;23.040;2022-12-18T14:16:03;94201.31;;;8.98
28305;BMP280;15569;42.652;23.040;2022-12-18T14:18:52;94210.38;;;8.66
28305;BMP280;15569;42.652;23.040;2022-12-18T14:21:25;94216.06;;;9.05
28305;BMP280;15569;42.652;23.040;2022-12-18T14:24:13;94219.81;;;9.09
28305;BMP280;15569;42.652;23.040;2022-12-18T14:26:40;94219.75;;;9.26
28305;BMP280;15569;42.652;23.040;2022-12-18T14:29:29;94227.94;;;9.36
28305;BMP280;15569;42.652;23.040;2022-12-18T14:32:14;94236.97;;;9.12
28305;BMP280;15569;42.652;23.040;2022-12-18T14:34:43;94222.13;;;9.13
28305;BMP280;15569;42.652;23.040;2022-12-18T14:37:15;94228.97;;;9.14
28305;BMP280;15569;42.652;23.040;2022-12-18T14:39:58;94224.25;;;8.70
28305;BMP280;15569;42.652;23.040;2022-12-18T14:42:28;94236.00;;;9.00
28305;BMP280;15569;42.652;23.040;2022-12-18T14:47:56;94215.84;;;8.93
28305;BMP280;15569;42.652;23.040;2022-12-18T14:50:22;94237.75;;;9.05
28305;BMP280;15569;42.652;23.040;2022-12-18T14:52:48;94240.84;;;8.92
28305;BMP280;15569;42.652;23.040;2022-12-18T14:55:18;94229.03;;;8.79
28305;BMP280;15569;42.652;23.040;2022-12-18T14:57:45;94239.72;;;8.95
28305;BMP280;15569;42.652;23.040;2022-12-18T15:00:19;94242.13;;;8.73
28305;BMP280;15569;42.652;23.040;2022-12-18T15:02:53;94239.31;;;8.81
28305;BMP280;15569;42.652;23.040;2022-12-18T15:05:30;94239.72;;;8.60
28305;BMP280;15569;42.652;23.040;2022-12-18T15:07:58;94245.56;;;8.74
28305;BMP280;15569;42.652;23.040;2022-12-18T15:10:29;94238.63;;;8.46
28305;BMP280;15569;42.652;23.040;2022-12-18T15:21:11;94258.72;;;8.43
28305;BMP280;15569;42.652;23.040;2022-12-18T15:23:47;94269.38;;;8.58
28305;BMP280;15569;42.652;23.040;2022-12-18T15:26:15;94252.47;;;8.33
28305;BMP280;15569;42.652;23.040;2022-12-18T15:28:52;94256.13;;;8.28
28305;BMP280;15569;42.652;23.040;2022-12-18T15:31:24;94265.81;;;8.73
28305;BMP280;15569;42.652;23.040;2022-12-18T15:36:19;94259.72;;;8.31
28305;BMP280;15569;42.652;23.040;2022-12-18T15:38:49;94266.84;;;8.43
28305;BMP280;15569;42.652;23.040;2022-12-18T15:41:16;94265.50;;;8.35
28305;BMP280;15569;42.652;23.040;2022-12-18T15:43:42;94263.41;;;8.26
28305;BMP280;15569;42.652;23.040;2022-12-18T15:46:13;94269.69;;;8.28
28305;BMP280;15569;42.652;23.040;2022-12-18T15:48:42;94275.03;;;7.94
28305;BMP280;15569;42.652;23.040;2022-12-18T15:51:17;94280.19;;;8.24
28305;BMP280;15569;42.652;23.040;2022-12-18T15:53:44;94291.09;;;8.17
28305;BMP280;15569;42.652;23.040;2022-12-18T15:56:11;94285.53;;;7.90
28305;BMP280;15569;42.652;23.040;2022-12-18T15:58:55;94298.84;;;8.37
28305;BMP280;15569;42.652;23.040;2022-12-18T16:01:23;94303.59;;;8.12
28305;BMP280;15569;42.652;23.040;2022-12-18T16:03:49;94296.09;;;8.03
28305;BMP280;15569;42.652;23.040;2022-12-18T16:06:14;94311.44;;;8.25
28305;BMP280;15569;42.652;23.040;2022-12-18T16:08:39;94291.59;;;7.98
28305;BMP280;15569;42.652;23.040;2022-12-18T16:11:05;94304.03;;;8.01
28305;BMP280;15569;42.652;23.040;2022-12-18T16:13:31;94306.13;;;8.10